sensor_id;sensor_type;location;lat;lon;timestamp;pressure;altitude;pressure_sealevel;temperature;humidity
27729;BME280;15126;42.186;24.340;2024-03-23T00:53:27;99555.88;;;4.89;62.35
27729;BME280;15126;42.186;24.340;2024-03-23T00:55:53;99560.50;;;4.74;64.21
27729;BME280;15126;42.186;24.340;2024-03-23T00:58:19;99554.56;;;4.73;64.14
27729;BME280;15126;42.186;24.340;2024-03-23T01:00:47;99546.97;;;4.72;63.14
27729;BME280;15126;42.186;24.340;2024-03-23T01:03:12;99545.88;;;4.80;63.77
27729;BME280;15126;42.186;24.340;2024-03-23T01:05:38;99548.19;;;4.91;62.35
27729;BME280;15126;42.186;24.340;2024-03-23T01:08:04;99553.31;;;4.91;63.95
27729;BME280;15126;42.186;24.340;2024-03-23T01:10:30;99544.84;;;4.89;63.66
27729;BME280;15126;42.186;24.340;2024-03-23T01:12:55;99552.94;;;4.71;63.88
27729;BME280;15126;42.186;24.340;2024-03-23T01:15:21;99558.91;;;4.69;63.32
27729;BME280;15126;42.186;24.340;2024-03-23T01:17:46;99557.28;;;4.67;64.33
27729;BME280;15126;42.186;24.340;2024-03-23T01:20:13;99554.97;;;4.56;63.57
27729;BME280;15126;42.186;24.340;2024-03-23T01:22:38;99560.75;;;4.64;63.79
27729;BME280;15126;42.186;24.340;2024-03-23T01:25:04;99559.09;;;4.62;62.89
27729;BME280;15126;42.186;24.340;2024-03-23T01:27:29;99566.22;;;4.83;62.08
27729;BME280;15126;42.186;24.340;2024-03-23T01:29:55;99561.13;;;4.83;62.10
27729;BME280;15126;42.186;24.340;2024-03-23T01:32:20;99562.03;;;4.81;61.46
27729;BME280;15126;42.186;24.340;2024-03-23T01:34:46;99563.66;;;4.85;60.49
27729;BME280;15126;42.186;24.340;2024-03-23T01:37:11;99558.69;;;4.79;61.52
27729;BME280;15126;42.186;24.340;2024-03-23T01:39:36;99566.22;;;4.83;61.43
27729;BME280;15126;42.186;24.340;2024-03-23T01:42:02;99572.38;;;4.75;63.35
27729;BME280;15126;42.186;24.340;2024-03-23T01:44:28;99563.69;;;4.83;63.21
27729;BME280;15126;42.186;24.340;2024-03-23T01:46:53;99563.72;;;4.80;62.99
27729;BME280;15126;42.186;24.340;2024-03-23T01:49:19;99565.69;;;4.71;63.97
27729;BME280;15126;42.186;24.340;2024-03-23T01:51:45;99554.75;;;4.65;63.61
27729;BME280;15126;42.186;24.340;2024-03-23T01:54:11;99558.09;;;4.67;63.14
27729;BME280;15126;42.186;24.340;2024-03-23T01:56:36;99557.09;;;4.75;62.52
27729;BME280;15126;42.186;24.340;2024-03-23T01:59:03;99559.84;;;4.65;62.73
27729;BME280;15126;42.186;24.340;2024-03-23T02:01:28;99563.13;;;4.71;63.13
27729;BME280;15126;42.186;24.340;2024-03-23T02:03:54;99557.69;;;4.48;62.98
27729;BME280;15126;42.186;24.340;2024-03-23T02:06:20;99560.06;;;4.58;62.03
27729;BME280;15126;42.186;24.340;2024-03-23T02:08:45;99553.88;;;4.66;61.40
27729;BME280;15126;42.186;24.340;2024-03-23T02:11:11;99557.38;;;4.62;62.58
27729;BME280;15126;42.186;24.340;2024-03-23T02:13:36;99555.69;;;4.61;63.00
27729;BME280;15126;42.186;24.340;2024-03-23T02:16:02;99564.53;;;4.46;63.66
27729;BME280;15126;42.186;24.340;2024-03-23T02:18:27;99563.50;;;4.18;65.40
27729;BME280;15126;42.186;24.340;2024-03-23T02:20:53;99557.63;;;4.14;64.73
27729;BME280;15126;42.186;24.340;2024-03-23T02:23:18;99558.41;;;4.18;64.83
27729;BME280;15126;42.186;24.340;2024-03-23T02:25:44;99556.59;;;4.23;64.78
27729;BME280;15126;42.186;24.340;2024-03-23T02:28:10;99561.13;;;4.10;64.55
27729;BME280;15126;42.186;24.340;2024-03-23T02:30:36;99560.88;;;4.21;64.11
27729;BME280;15126;42.186;24.340;2024-03-23T02:33:01;99559.94;;;4.25;64.27
27729;BME280;15126;42.186;24.340;2024-03-23T02:35:27;99560.03;;;4.20;64.94
27729;BME280;15126;42.186;24.340;2024-03-23T02:37:53;99555.91;;;4.15;64.76
27729;BME280;15126;42.186;24.340;2024-03-23T02:40:20;99555.75;;;4.22;64.41
27729;BME280;15126;42.186;24.340;2024-03-23T02:42:45;99559.09;;;4.24;64.36
27729;BME280;15126;42.186;24.340;2024-03-23T02:45:11;99554.09;;;4.21;63.64
27729;BME280;15126;42.186;24.340;2024-03-23T02:47:37;99555.19;;;4.10;64.24
27729;BME280;15126;42.186;24.340;2024-03-23T02:50:02;99556.94;;;4.07;64.66
27729;BME280;15126;42.186;24.340;2024-03-23T02:52:28;99552.56;;;4.13;64.48
27729;BME280;15126;42.186;24.340;2024-03-23T02:54:53;99555.91;;;4.15;64.82
27729;BME280;15126;42.186;24.340;2024-03-23T02:57:19;99555.88;;;4.16;64.30
27729;BME280;15126;42.186;24.340;2024-03-23T02:59:47;99552.56;;;4.13;64.69
27729;BME280;15126;42.186;24.340;2024-03-23T03:02:13;99556.97;;;4.06;64.80
27729;BME280;15126;42.186;24.340;2024-03-23T03:04:39;99551.81;;;4.09;64.75
27729;BME280;15126;42.186;24.340;2024-03-23T03:07:04;99553.53;;;4.08;64.81
27729;BME280;15126;42.186;24.340;2024-03-23T03:09:30;99553.53;;;4.08;64.19
27729;BME280;15126;42.186;24.340;2024-03-23T03:11:55;99546.66;;;4.11;63.93
27729;BME280;15126;42.186;24.340;2024-03-23T03:14:21;99550.19;;;4.05;64.58
27729;BME280;15126;42.186;24.340;2024-03-23T03:16:46;99550.19;;;4.05;64.97
27729;BME280;15126;42.186;24.340;2024-03-23T03:19:12;99561.22;;;4.05;65.13
27729;BME280;15126;42.186;24.340;2024-03-23T03:21:37;99551.25;;;3.96;66.26
27729;BME280;15126;42.186;24.340;2024-03-23T03:24:07;99565.84;;;3.86;65.84
27729;BME280;15126;42.186;24.340;2024-03-23T03:26:33;99554.75;;;3.91;65.38
27729;BME280;15126;42.186;24.340;2024-03-23T03:29:02;99556.44;;;3.92;65.37
27729;BME280;15126;42.186;24.340;2024-03-23T03:31:29;99554.88;;;3.84;66.64
27729;BME280;15126;42.186;24.340;2024-03-23T03:33:55;99557.31;;;3.89;66.15
27729;BME280;15126;42.186;24.340;2024-03-23T03:36:20;99553.78;;;3.96;64.52
27729;BME280;15126;42.186;24.340;2024-03-23T03:38:46;99554.59;;;3.98;65.45
27729;BME280;15126;42.186;24.340;2024-03-23T03:41:14;99541.34;;;3.82;65.54
27729;BME280;15126;42.186;24.340;2024-03-23T03:43:40;99551.25;;;3.95;64.20
27729;BME280;15126;42.186;24.340;2024-03-23T03:46:05;99550.38;;;3.96;63.72
27729;BME280;15126;42.186;24.340;2024-03-23T03:48:36;99552.03;;;3.98;64.89
27729;BME280;15126;42.186;24.340;2024-03-23T03:51:04;99552.06;;;3.97;65.09
27729;BME280;15126;42.186;24.340;2024-03-23T03:53:30;99553.72;;;3.98;63.82
27729;BME280;15126;42.186;24.340;2024-03-23T03:55:56;99549.66;;;3.91;65.16
27729;BME280;15126;42.186;24.340;2024-03-23T03:58:25;99543.72;;;3.92;64.38
27729;BME280;15126;42.186;24.340;2024-03-23T04:00:50;99548.00;;;3.88;65.23
27729;BME280;15126;42.186;24.340;2024-03-23T04:03:16;99556.50;;;3.87;64.81
27729;BME280;15126;42.186;24.340;2024-03-23T04:05:42;99543.88;;;3.82;64.45
27729;BME280;15126;42.186;24.340;2024-03-23T04:08:07;99561.69;;;3.82;64.02
27729;BME280;15126;42.186;24.340;2024-03-23T04:10:33;99564.31;;;3.79;64.45
27729;BME280;15126;42.186;24.340;2024-03-23T04:12:59;99570.31;;;3.77;65.46
27729;BME280;15126;42.186;24.340;2024-03-23T04:15:24;99573.94;;;3.63;65.72
27729;BME280;15126;42.186;24.340;2024-03-23T04:17:50;99575.81;;;3.55;66.12
27729;BME280;15126;42.186;24.340;2024-03-23T04:20:18;99569.06;;;3.54;66.11
27729;BME280;15126;42.186;24.340;2024-03-23T04:22:49;99575.06;;;3.50;66.49
27729;BME280;15126;42.186;24.340;2024-03-23T04:25:19;99574.25;;;3.48;66.41
27729;BME280;15126;42.186;24.340;2024-03-23T04:27:52;99569.97;;;3.50;65.60
27729;BME280;15126;42.186;24.340;2024-03-23T04:30:21;99575.09;;;3.49;66.39
27729;BME280;15126;42.186;24.340;2024-03-23T04:32:49;99575.56;;;3.24;66.89
27729;BME280;15126;42.186;24.340;2024-03-23T04:35:15;99573.84;;;3.24;67.30
27729;BME280;15126;42.186;24.340;2024-03-23T04:37:41;99576.94;;;3.40;65.51
27729;BME280;15126;42.186;24.340;2024-03-23T04:40:07;99586.25;;;3.41;67.09
27729;BME280;15126;42.186;24.340;2024-03-23T04:42:36;99578.50;;;3.47;66.26
27729;BME280;15126;42.186;24.340;2024-03-23T04:45:05;99585.34;;;3.45;66.91
27729;BME280;15126;42.186;24.340;2024-03-23T04:47:31;99577.50;;;3.56;65.96
27729;BME280;15126;42.186;24.340;2024-03-23T04:50:02;99584.34;;;3.53;67.32
27729;BME280;15126;42.186;24.340;2024-03-23T04:52:28;99587.72;;;3.53;66.50
27729;BME280;15126;42.186;24.340;2024-03-23T04:54:53;99584.53;;;3.42;66.92
27729;BME280;15126;42.186;24.340;2024-03-23T04:57:19;99581.81;;;3.51;67.21
27729;BME280;15126;42.186;24.340;2024-03-23T04:59:47;99579.16;;;3.57;67.24
27729;BME280;15126;42.186;24.340;2024-03-23T05:02:14;99573.03;;;3.67;66.03
27729;BME280;15126;42.186;24.340;2024-03-23T05:04:39;99582.66;;;3.95;65.91
27729;BME280;15126;42.186;24.340;2024-03-23T05:07:06;99577.91;;;4.19;64.47
27729;BME280;15126;42.186;24.340;2024-03-23T05:09:31;99580.88;;;4.38;63.57
27729;BME280;15126;42.186;24.340;2024-03-23T05:12:01;99578.84;;;4.52;63.68
27729;BME280;15126;42.186;24.340;2024-03-23T05:14:27;99586.09;;;4.71;63.01
27729;BME280;15126;42.186;24.340;2024-03-23T05:16:53;99573.69;;;4.91;62.15
27729;BME280;15126;42.186;24.340;2024-03-23T05:19:24;99575.09;;;5.03;61.39
27729;BME280;15126;42.186;24.340;2024-03-23T05:21:50;99562.97;;;5.11;60.24
27729;BME280;15126;42.186;24.340;2024-03-23T05:24:22;99566.72;;;5.30;60.12
27729;BME280;15126;42.186;24.340;2024-03-23T05:26:47;99562.34;;;5.36;59.57
27729;BME280;15126;42.186;24.340;2024-03-23T05:29:13;99555.09;;;5.51;59.56
27729;BME280;15126;42.186;24.340;2024-03-23T05:31:42;99571.56;;;5.71;59.61
27729;BME280;15126;42.186;24.340;2024-03-23T05:34:10;99571.88;;;5.90;58.65
27729;BME280;15126;42.186;24.340;2024-03-23T05:36:35;99574.06;;;6.05;58.75
27729;BME280;15126;42.186;24.340;2024-03-23T05:39:02;99571.09;;;6.18;58.21
27729;BME280;15126;42.186;24.340;2024-03-23T05:41:27;99568.16;;;6.31;57.42
27729;BME280;15126;42.186;24.340;2024-03-23T05:43:53;99564.34;;;6.43;56.92
27729;BME280;15126;42.186;24.340;2024-03-23T05:46:19;99558.34;;;6.46;55.91
27729;BME280;15126;42.186;24.340;2024-03-23T05:48:45;99556.66;;;6.71;55.64
27729;BME280;15126;42.186;24.340;2024-03-23T05:51:10;99556.47;;;6.78;55.29
27729;BME280;15126;42.186;24.340;2024-03-23T05:53:40;99552.56;;;6.66;53.87
27729;BME280;15126;42.186;24.340;2024-03-23T05:56:11;99552.06;;;6.81;54.40
27729;BME280;15126;42.186;24.340;2024-03-23T05:58:37;99553.63;;;7.12;53.32
27729;BME280;15126;42.186;24.340;2024-03-23T06:01:03;99551.59;;;7.22;52.65
27729;BME280;15126;42.186;24.340;2024-03-23T06:03:29;99561.28;;;7.37;51.13
27729;BME280;15126;42.186;24.340;2024-03-23T06:05:55;99558.47;;;7.68;51.59
27729;BME280;15126;42.186;24.340;2024-03-23T06:08:20;99556.00;;;7.89;50.67
27729;BME280;15126;42.186;24.340;2024-03-23T06:10:47;99546.72;;;8.08;49.66
27729;BME280;15126;42.186;24.340;2024-03-23T06:13:13;99548.59;;;8.27;50.30
27729;BME280;15126;42.186;24.340;2024-03-23T06:15:41;99542.78;;;8.45;49.84
27729;BME280;15126;42.186;24.340;2024-03-23T06:18:14;99550.75;;;8.80;49.41
27729;BME280;15126;42.186;24.340;2024-03-23T06:20:40;99554.38;;;9.17;50.40
27729;BME280;15126;42.186;24.340;2024-03-23T06:23:08;99554.19;;;9.22;47.53
27729;BME280;15126;42.186;24.340;2024-03-23T06:25:43;99538.75;;;9.42;48.82
27729;BME280;15126;42.186;24.340;2024-03-23T06:28:10;99549.16;;;9.58;47.51
27729;BME280;15126;42.186;24.340;2024-03-23T06:30:38;99545.16;;;9.90;46.15
27729;BME280;15126;42.186;24.340;2024-03-23T06:33:03;99546.75;;;10.12;45.05
27729;BME280;15126;42.186;24.340;2024-03-23T06:35:31;99540.19;;;10.24;44.69
27729;BME280;15126;42.186;24.340;2024-03-23T06:38:04;99551.53;;;10.38;46.18
27729;BME280;15126;42.186;24.340;2024-03-23T06:40:29;99548.44;;;10.49;45.03
27729;BME280;15126;42.186;24.340;2024-03-23T06:42:55;99550.41;;;10.44;44.54
27729;BME280;15126;42.186;24.340;2024-03-23T06:45:23;99541.41;;;10.53;45.82
27729;BME280;15126;42.186;24.340;2024-03-23T06:47:51;99535.75;;;10.64;45.91
27729;BME280;15126;42.186;24.340;2024-03-23T06:50:47;99549.81;;;10.56;44.90
27729;BME280;15126;42.186;24.340;2024-03-23T06:53:28;99547.47;;;11.04;43.96
27729;BME280;15126;42.186;24.340;2024-03-23T06:55:56;99548.94;;;11.43;43.69
27729;BME280;15126;42.186;24.340;2024-03-23T06:58:25;99544.59;;;11.44;43.89
27729;BME280;15126;42.186;24.340;2024-03-23T07:00:53;99541.06;;;11.78;44.85
27729;BME280;15126;42.186;24.340;2024-03-23T07:03:19;99534.47;;;12.06;42.16
27729;BME280;15126;42.186;24.340;2024-03-23T07:05:45;99535.59;;;11.84;43.11
27729;BME280;15126;42.186;24.340;2024-03-23T07:08:13;99533.88;;;12.16;40.95
27729;BME280;15126;42.186;24.340;2024-03-23T07:10:46;99534.44;;;12.37;42.25
27729;BME280;15126;42.186;24.340;2024-03-23T07:13:15;99527.44;;;12.70;41.05
27729;BME280;15126;42.186;24.340;2024-03-23T07:15:43;99531.53;;;12.28;38.45
27729;BME280;15126;42.186;24.340;2024-03-23T07:18:11;99524.31;;;12.02;40.61
27729;BME280;15126;42.186;24.340;2024-03-23T07:20:39;99533.41;;;11.94;44.80
27729;BME280;15126;42.186;24.340;2024-03-23T07:23:05;99531.22;;;12.18;39.93
27729;BME280;15126;42.186;24.340;2024-03-23T07:25:31;99529.91;;;12.11;40.93
27729;BME280;15126;42.186;24.340;2024-03-23T07:28:06;99523.69;;;12.29;41.66
27729;BME280;15126;42.186;24.340;2024-03-23T07:30:31;99519.53;;;12.27;40.22
27729;BME280;15126;42.186;24.340;2024-03-23T07:32:59;99521.91;;;12.61;40.44
27729;BME280;15126;42.186;24.340;2024-03-23T07:35:25;99524.00;;;13.14;39.77
27729;BME280;15126;42.186;24.340;2024-03-23T07:37:51;99521.28;;;13.31;38.71
27729;BME280;15126;42.186;24.340;2024-03-23T07:40:19;99509.28;;;13.30;38.91
27729;BME280;15126;42.186;24.340;2024-03-23T07:42:44;99511.66;;;13.04;38.27
27729;BME280;15126;42.186;24.340;2024-03-23T07:45:10;99495.59;;;13.28;39.50
27729;BME280;15126;42.186;24.340;2024-03-23T07:47:39;99491.00;;;13.48;37.96
27729;BME280;15126;42.186;24.340;2024-03-23T07:50:08;99502.19;;;13.34;38.92
27729;BME280;15126;42.186;24.340;2024-03-23T07:52:36;99495.13;;;13.21;38.50
27729;BME280;15126;42.186;24.340;2024-03-23T07:55:05;99490.88;;;13.63;39.92
27729;BME280;15126;42.186;24.340;2024-03-23T07:57:30;99489.78;;;13.68;38.03
27729;BME280;15126;42.186;24.340;2024-03-23T07:59:56;99488.97;;;13.38;38.60
27729;BME280;15126;42.186;24.340;2024-03-23T08:02:21;99487.44;;;13.77;37.99
27729;BME280;15126;42.186;24.340;2024-03-23T08:04:52;99484.22;;;13.16;37.69
27729;BME280;15126;42.186;24.340;2024-03-23T08:07:18;99482.28;;;13.20;40.31
27729;BME280;15126;42.186;24.340;2024-03-23T08:09:46;99482.69;;;13.42;39.29
27729;BME280;15126;42.186;24.340;2024-03-23T08:12:12;99478.78;;;13.64;38.20
27729;BME280;15126;42.186;24.340;2024-03-23T08:14:40;99470.38;;;13.60;37.88
27729;BME280;15126;42.186;24.340;2024-03-23T08:17:09;99464.59;;;13.42;36.96
27729;BME280;15126;42.186;24.340;2024-03-23T08:19:35;99475.44;;;13.76;41.07
27729;BME280;15126;42.186;24.340;2024-03-23T08:22:01;99465.81;;;13.78;39.16
27729;BME280;15126;42.186;24.340;2024-03-23T08:24:34;99462.34;;;13.92;38.00
27729;BME280;15126;42.186;24.340;2024-03-23T08:27:07;99462.13;;;14.10;39.90
27729;BME280;15126;42.186;24.340;2024-03-23T08:29:33;99451.22;;;14.04;38.17
27729;BME280;15126;42.186;24.340;2024-03-23T08:31:58;99445.88;;;14.08;40.86
27729;BME280;15126;42.186;24.340;2024-03-23T08:34:26;99445.06;;;14.33;39.91
27729;BME280;15126;42.186;24.340;2024-03-23T08:36:51;99449.56;;;14.43;38.97
27729;BME280;15126;42.186;24.340;2024-03-23T08:39:22;99450.59;;;14.41;39.50
27729;BME280;15126;42.186;24.340;2024-03-23T08:41:48;99444.25;;;14.32;37.03
27729;BME280;15126;42.186;24.340;2024-03-23T08:44:18;99433.66;;;14.62;38.61
27729;BME280;15126;42.186;24.340;2024-03-23T08:46:49;99428.28;;;14.65;36.20
27729;BME280;15126;42.186;24.340;2024-03-23T08:49:18;99427.44;;;15.03;36.74
27729;BME280;15126;42.186;24.340;2024-03-23T08:51:46;99417.06;;;15.03;37.69
27729;BME280;15126;42.186;24.340;2024-03-23T08:54:12;99425.13;;;15.24;36.47
27729;BME280;15126;42.186;24.340;2024-03-23T08:56:38;99416.88;;;15.43;38.87
27729;BME280;15126;42.186;24.340;2024-03-23T08:59:03;99413.03;;;15.36;37.22
27729;BME280;15126;42.186;24.340;2024-03-23T09:01:31;99415.06;;;15.57;37.84
27729;BME280;15126;42.186;24.340;2024-03-23T09:03:57;99408.25;;;15.80;35.57
27729;BME280;15126;42.186;24.340;2024-03-23T09:06:34;99404.34;;;15.61;36.42
27729;BME280;15126;42.186;24.340;2024-03-23T09:08:59;99405.13;;;15.87;35.95
27729;BME280;15126;42.186;24.340;2024-03-23T09:11:25;99392.88;;;15.90;35.87
27729;BME280;15126;42.186;24.340;2024-03-23T09:13:53;99394.50;;;15.91;35.82
27729;BME280;15126;42.186;24.340;2024-03-23T09:16:19;99393.00;;;15.99;35.74
27729;BME280;15126;42.186;24.340;2024-03-23T09:18:47;99389.66;;;16.21;37.64
27729;BME280;15126;42.186;24.340;2024-03-23T09:21:17;99380.56;;;16.27;35.33
27729;BME280;15126;42.186;24.340;2024-03-23T09:23:59;99378.94;;;16.37;34.46
27729;BME280;15126;42.186;24.340;2024-03-23T09:26:28;99373.59;;;16.16;37.85
27729;BME280;15126;42.186;24.340;2024-03-23T09:28:55;99368.19;;;16.31;36.26
27729;BME280;15126;42.186;24.340;2024-03-23T09:31:31;99371.41;;;16.45;33.83
27729;BME280;15126;42.186;24.340;2024-03-23T09:33:59;99361.16;;;16.66;36.87
27729;BME280;15126;42.186;24.340;2024-03-23T09:36:24;99348.06;;;16.68;35.12
27729;BME280;15126;42.186;24.340;2024-03-23T09:38:50;99350.09;;;16.87;34.86
27729;BME280;15126;42.186;24.340;2024-03-23T09:41:15;99349.09;;;16.77;34.29
27729;BME280;15126;42.186;24.340;2024-03-23T09:43:41;99346.72;;;16.74;34.79
27729;BME280;15126;42.186;24.340;2024-03-23T09:46:17;99343.78;;;16.78;31.95
27729;BME280;15126;42.186;24.340;2024-03-23T09:48:46;99338.00;;;16.75;35.40
27729;BME280;15126;42.186;24.340;2024-03-23T09:51:12;99336.25;;;16.86;32.31
27729;BME280;15126;42.186;24.340;2024-03-23T09:53:46;99337.41;;;17.05;33.66
27729;BME280;15126;42.186;24.340;2024-03-23T09:56:14;99333.41;;;17.01;33.11
27729;BME280;15126;42.186;24.340;2024-03-23T09:58:42;99329.50;;;16.95;32.96
27729;BME280;15126;42.186;24.340;2024-03-23T10:01:07;99325.16;;;16.96;32.64
27729;BME280;15126;42.186;24.340;2024-03-23T10:03:43;99311.28;;;17.06;31.37
27729;BME280;15126;42.186;24.340;2024-03-23T10:06:09;99305.94;;;17.19;31.88
27729;BME280;15126;42.186;24.340;2024-03-23T10:08:34;99316.00;;;17.13;31.90
27729;BME280;15126;42.186;24.340;2024-03-23T10:11:13;99299.19;;;17.28;32.16
27729;BME280;15126;42.186;24.340;2024-03-23T10:13:44;99298.69;;;17.34;34.46
27729;BME280;15126;42.186;24.340;2024-03-23T10:16:11;99296.50;;;17.50;30.92
27729;BME280;15126;42.186;24.340;2024-03-23T10:18:38;99294.13;;;17.47;30.74
27729;BME280;15126;42.186;24.340;2024-03-23T10:21:10;99288.72;;;17.72;30.97
27729;BME280;15126;42.186;24.340;2024-03-23T10:23:40;99289.25;;;17.54;30.71
27729;BME280;15126;42.186;24.340;2024-03-23T10:26:22;99284.00;;;17.33;30.46
27729;BME280;15126;42.186;24.340;2024-03-23T10:28:58;99279.22;;;17.17;32.50
27729;BME280;15126;42.186;24.340;2024-03-23T10:31:32;99273.81;;;17.09;33.27
27729;BME280;15126;42.186;24.340;2024-03-23T10:33:58;99272.41;;;17.05;30.44
27729;BME280;15126;42.186;24.340;2024-03-23T10:36:36;99263.16;;;17.12;32.64
27729;BME280;15126;42.186;24.340;2024-03-23T10:39:07;99260.16;;;17.28;31.97
27729;BME280;15126;42.186;24.340;2024-03-23T10:41:33;99260.81;;;17.41;30.84
27729;BME280;15126;42.186;24.340;2024-03-23T10:44:07;99253.59;;;17.66;30.28
27729;BME280;15126;42.186;24.340;2024-03-23T10:46:33;99240.31;;;17.69;29.35
27729;BME280;15126;42.186;24.340;2024-03-23T10:48:58;99240.09;;;17.72;29.73
27729;BME280;15126;42.186;24.340;2024-03-23T10:51:24;99236.13;;;17.78;31.66
27729;BME280;15126;42.186;24.340;2024-03-23T10:53:55;99231.00;;;17.66;31.04
27729;BME280;15126;42.186;24.340;2024-03-23T10:56:22;99219.00;;;17.75;33.11
27729;BME280;15126;42.186;24.340;2024-03-23T10:58:48;99220.72;;;17.65;32.54
27729;BME280;15126;42.186;24.340;2024-03-23T11:01:18;99222.38;;;17.66;32.93
27729;BME280;15126;42.186;24.340;2024-03-23T11:03:49;99207.19;;;17.92;32.03
27729;BME280;15126;42.186;24.340;2024-03-23T11:06:49;99213.09;;;17.73;30.15
27729;BME280;15126;42.186;24.340;2024-03-23T11:09:45;99202.56;;;17.75;30.89
27729;BME280;15126;42.186;24.340;2024-03-23T11:14:45;99186.84;;;18.07;29.38
27729;BME280;15126;42.186;24.340;2024-03-23T11:17:25;99186.06;;;18.16;30.45
27729;BME280;15126;42.186;24.340;2024-03-23T11:20:01;99168.09;;;18.13;29.09
27729;BME280;15126;42.186;24.340;2024-03-23T11:27:50;99150.19;;;17.89;29.98
27729;BME280;15126;42.186;24.340;2024-03-23T11:30:27;99153.50;;;18.01;31.05
27729;BME280;15126;42.186;24.340;2024-03-23T11:32:58;99141.34;;;18.11;29.33
27729;BME280;15126;42.186;24.340;2024-03-23T11:35:32;99119.81;;;17.99;29.52
27729;BME280;15126;42.186;24.340;2024-03-23T11:38:17;99130.59;;;18.35;31.76
27729;BME280;15126;42.186;24.340;2024-03-23T11:41:02;99125.94;;;18.48;28.49
27729;BME280;15126;42.186;24.340;2024-03-23T11:43:51;99122.22;;;18.31;29.43
27729;BME280;15126;42.186;24.340;2024-03-23T11:46:22;99120.41;;;18.22;29.40
27729;BME280;15126;42.186;24.340;2024-03-23T11:48:51;99114.66;;;18.28;28.63
27729;BME280;15126;42.186;24.340;2024-03-23T11:51:17;99107.25;;;18.24;28.54
27729;BME280;15126;42.186;24.340;2024-03-23T11:53:42;99098.75;;;18.12;29.63
27729;BME280;15126;42.186;24.340;2024-03-23T11:56:10;99095.19;;;18.33;29.77
27729;BME280;15126;42.186;24.340;2024-03-23T11:58:36;99097.41;;;18.47;29.10
27729;BME280;15126;42.186;24.340;2024-03-23T12:01:02;99087.56;;;18.50;27.47
27729;BME280;15126;42.186;24.340;2024-03-23T12:03:31;99089.59;;;18.66;28.10
27729;BME280;15126;42.186;24.340;2024-03-23T12:06:03;99076.16;;;18.61;28.40
27729;BME280;15126;42.186;24.340;2024-03-23T12:08:40;99076.31;;;18.69;27.03
27729;BME280;15126;42.186;24.340;2024-03-23T12:11:16;99071.22;;;18.68;27.59
27729;BME280;15126;42.186;24.340;2024-03-23T12:13:44;99070.78;;;18.43;26.95
27729;BME280;15126;42.186;24.340;2024-03-23T12:16:20;99061.91;;;18.56;28.34
27729;BME280;15126;42.186;24.340;2024-03-23T12:18:47;99062.84;;;18.45;27.71
27729;BME280;15126;42.186;24.340;2024-03-23T12:21:13;99057.25;;;18.69;28.02
27729;BME280;15126;42.186;24.340;2024-03-23T12:23:39;99052.44;;;18.55;26.88
27729;BME280;15126;42.186;24.340;2024-03-23T12:26:05;99053.66;;;18.70;27.25
27729;BME280;15126;42.186;24.340;2024-03-23T12:28:32;99049.56;;;18.67;25.80
27729;BME280;15126;42.186;24.340;2024-03-23T12:30:58;99041.19;;;18.83;25.55
27729;BME280;15126;42.186;24.340;2024-03-23T12:33:24;99034.44;;;18.71;27.60
27729;BME280;15126;42.186;24.340;2024-03-23T12:35:52;99028.56;;;18.79;25.14
27729;BME280;15126;42.186;24.340;2024-03-23T12:38:21;99029.91;;;18.73;25.03
27729;BME280;15126;42.186;24.340;2024-03-23T12:41:16;99015.28;;;18.82;25.82
27729;BME280;15126;42.186;24.340;2024-03-23T12:43:46;99020.75;;;18.88;24.27
27729;BME280;15126;42.186;24.340;2024-03-23T12:46:14;99013.88;;;18.97;25.14
27729;BME280;15126;42.186;24.340;2024-03-23T12:48:40;99014.38;;;19.10;25.46
27729;BME280;15126;42.186;24.340;2024-03-23T12:51:07;99006.78;;;19.17;23.58
27729;BME280;15126;42.186;24.340;2024-03-23T12:53:33;99006.09;;;19.25;24.82
27729;BME280;15126;42.186;24.340;2024-03-23T12:56:01;99002.59;;;19.34;24.69
27729;BME280;15126;42.186;24.340;2024-03-23T12:58:31;98991.78;;;19.29;25.32
27729;BME280;15126;42.186;24.340;2024-03-23T13:01:01;98993.84;;;19.35;24.20
27729;BME280;15126;42.186;24.340;2024-03-23T13:03:27;98991.78;;;19.29;23.55
27729;BME280;15126;42.186;24.340;2024-03-23T13:05:53;98989.88;;;19.31;25.17
27729;BME280;15126;42.186;24.340;2024-03-23T13:08:21;98980.59;;;19.09;24.37
27729;BME280;15126;42.186;24.340;2024-03-23T13:10:47;98986.25;;;19.04;24.75
27729;BME280;15126;42.186;24.340;2024-03-23T13:13:15;98980.47;;;19.10;25.19
27729;BME280;15126;42.186;24.340;2024-03-23T13:15:41;98982.13;;;19.02;25.65
27729;BME280;15126;42.186;24.340;2024-03-23T13:18:06;98971.84;;;19.00;24.15
27729;BME280;15126;42.186;24.340;2024-03-23T13:20:35;98961.94;;;19.04;25.11
27729;BME280;15126;42.186;24.340;2024-03-23T13:23:01;98953.56;;;19.10;23.50
27729;BME280;15126;42.186;24.340;2024-03-23T13:25:27;98934.19;;;19.12;23.25
27729;BME280;15126;42.186;24.340;2024-03-23T13:27:53;98946.78;;;19.17;23.58
27729;BME280;15126;42.186;24.340;2024-03-23T13:30:18;98943.03;;;19.02;23.79
27729;BME280;15126;42.186;24.340;2024-03-23T13:32:56;98936.38;;;18.70;24.82
27729;BME280;15126;42.186;24.340;2024-03-23T13:35:22;98925.81;;;18.71;23.46
27729;BME280;15126;42.186;24.340;2024-03-23T13:37:48;98927.31;;;18.84;25.05
27729;BME280;15126;42.186;24.340;2024-03-23T13:40:17;98934.00;;;18.77;24.79
27729;BME280;15126;42.186;24.340;2024-03-23T13:42:51;98918.53;;;18.65;26.11
27729;BME280;15126;42.186;24.340;2024-03-23T13:45:16;98922.78;;;18.66;27.36
27729;BME280;15126;42.186;24.340;2024-03-23T13:47:57;98920.22;;;18.57;26.12
27729;BME280;15126;42.186;24.340;2024-03-23T13:50:23;98925.00;;;18.51;27.17
27729;BME280;15126;42.186;24.340;2024-03-23T13:52:48;98921.88;;;18.38;28.47
27729;BME280;15126;42.186;24.340;2024-03-23T13:55:14;98919.00;;;18.41;27.32
27729;BME280;15126;42.186;24.340;2024-03-23T13:57:40;98921.88;;;18.28;26.59
27729;BME280;15126;42.186;24.340;2024-03-23T14:00:28;98914.91;;;18.29;27.03